Time;durP1;ratioP1;P1;durP2;ratioP2;P2;SDS_P1;SDS_P2;PMS_P1;PMS_P2;Temp;Humidity;BMP_temperature;BMP_pressure;BME280_temperature;BME280_humidity;BME280_pressure;Samples;Min_cycle;Max_cycle;Signal;HPM_P1;HPM_P2
2022/08/16 00:00:09;;;;;;;9.77;5.43;;;;;;;20.83;70.57;100379.69;6186833;23;20000;-69
2022/08/16 00:02:35;;;;;;;14.07;5.20;;;;;;;20.73;71.15;100372.47;6183260;23;20017;-69
2022/08/16 00:05:01;;;;;;;8.30;5.20;;;;;;;20.81;70.72;100381.94;6215445;23;20080;-69
2022/08/16 00:07:28;;;;;;;9.05;5.30;;;;;;;20.70;71.59;100373.06;6216743;23;20001;-69
2022/08/16 00:09:53;;;;;;;9.50;5.22;;;;;;;20.73;71.49;100374.38;6215838;23;20004;-69
2022/08/16 00:12:19;;;;;;;6.20;5.28;;;;;;;20.73;71.19;100374.38;6216182;23;20028;-69
2022/08/16 00:14:44;;;;;;;6.53;5.47;;;;;;;20.66;71.72;100372.84;6215970;23;20054;-69
2022/08/16 00:17:09;;;;;;;6.05;5.35;;;;;;;20.59;72.16;100379.84;6188310;23;20537;-69
2022/08/16 00:19:35;;;;;;;7.82;5.63;;;;;;;20.61;72.21;100378.44;6215699;23;20015;-69
2022/08/16 00:22:00;;;;;;;8.57;5.65;;;;;;;20.60;72.68;100385.03;6188253;23;20020;-69
2022/08/16 00:24:27;;;;;;;11.13;5.47;;;;;;;20.55;72.82;100385.13;6216186;23;20005;-69
2022/08/16 00:26:53;;;;;;;11.35;5.88;;;;;;;20.60;72.51;100385.03;6215582;23;20005;-69
2022/08/16 00:29:19;;;;;;;8.68;5.50;;;;;;;20.53;73.05;100395.59;6215826;23;20070;-68
2022/08/16 00:31:46;;;;;;;8.18;5.82;;;;;;;20.49;73.46;100389.09;6214646;23;20130;-69
2022/08/16 00:34:12;;;;;;;10.60;6.10;;;;;;;20.51;74.08;100392.34;6215076;23;20028;-68
2022/08/16 00:36:37;;;;;;;6.40;5.80;;;;;;;20.55;73.20;100398.88;6216263;23;20035;-69
2022/08/16 00:39:03;;;;;;;10.20;6.20;;;;;;;20.54;73.83;100402.75;6215633;23;20005;-69
2022/08/16 00:41:30;;;;;;;10.10;6.00;;;;;;;20.54;74.64;100391.75;6215934;23;20011;-69
2022/08/16 00:43:57;;;;;;;8.38;6.65;;;;;;;20.49;74.35;100395.41;6188541;23;20066;-69
2022/08/16 00:46:35;;;;;;;10.63;6.00;;;;;;;20.52;74.22;100399.50;6215141;23;20027;-69
2022/08/16 00:49:03;;;;;;;11.70;7.15;;;;;;;20.44;75.07;100398.25;6215214;23;20004;-69
2022/08/16 00:51:29;;;;;;;7.63;6.30;;;;;;;20.41;75.33;100395.28;6187109;23;20023;-69
2022/08/16 00:53:54;;;;;;;10.20;6.45;;;;;;;20.33;76.41;100399.53;6188446;23;20342;-68
2022/08/16 00:56:25;;;;;;;10.40;6.60;;;;;;;20.33;76.07;100399.53;6215631;23;20001;-69
2022/08/16 00:58:51;;;;;;;11.05;6.25;;;;;;;20.25;77.34;100403.81;6215481;23;20019;-69
2022/08/16 01:01:17;;;;;;;12.52;6.70;;;;;;;20.26;77.45;100405.44;6211582;23;20026;-69
2022/08/16 01:03:48;;;;;;;9.20;6.72;;;;;;;20.17;78.75;100407.25;6215620;23;20055;-68
2022/08/16 01:06:16;;;;;;;13.10;7.32;;;;;;;20.19;79.00;100399.50;6215572;23;20014;-69
2022/08/16 01:08:44;;;;;;;9.27;6.75;;;;;;;20.23;78.97;100403.28;6215218;23;20001;-69
2022/08/16 01:11:10;;;;;;;14.05;7.60;;;;;;;20.15;80.03;100407.53;6214818;23;20029;-68
2022/08/16 01:13:36;;;;;;;9.18;7.40;;;;;;;20.16;80.21;100402.84;6214724;23;20054;-68
2022/08/16 01:16:29;;;;;;;13.02;7.88;;;;;;;20.20;79.27;100403.91;6214701;23;20058;-70
2022/08/16 01:19:00;;;;;;;10.80;7.70;;;;;;;20.13;81.39;100400.72;6209556;23;20015;-69
2022/08/16 01:22:00;;;;;;;13.35;8.00;;;;;;;20.19;80.13;100402.25;6215132;23;20014;-69
2022/08/16 01:24:27;;;;;;;17.58;8.63;;;;;;;20.14;82.20;100396.84;6215509;23;20135;-70
2022/08/16 01:27:09;;;;;;;11.18;8.00;;;;;;;20.10;81.80;100395.81;6215577;23;20406;-70
2022/08/16 01:29:57;;;;;;;11.40;8.38;;;;;;;20.16;81.28;100408.34;6212713;23;20004;-70
2022/08/16 01:32:23;;;;;;;18.50;9.13;;;;;;;20.12;82.37;100404.56;6185674;23;20016;-68
2022/08/16 01:34:48;;;;;;;13.77;8.35;;;;;;;20.08;83.13;100400.78;6214832;23;20008;-70
2022/08/16 01:37:14;;;;;;;14.27;8.20;;;;;;;20.05;83.41;100398.63;6214426;23;20009;-69
2022/08/16 01:39:41;;;;;;;15.55;8.85;;;;;;;20.05;83.91;100396.72;6214633;23;20076;-69
2022/08/16 01:42:07;;;;;;;15.90;8.82;;;;;;;19.98;84.62;100399.84;6215014;23;20001;-69
2022/08/16 01:44:38;;;;;;;15.18;8.80;;;;;;;19.98;84.63;100401.78;6215285;23;20035;-70
2022/08/16 01:47:04;;;;;;;15.10;9.13;;;;;;;19.93;85.15;100402.69;6215388;23;20012;-70
2022/08/16 01:49:33;;;;;;;11.82;8.77;;;;;;;19.95;85.56;100407.88;6214154;23;20004;-70
2022/08/16 01:52:03;;;;;;;10.38;8.25;;;;;;;19.90;85.76;100394.19;6213683;23;20072;-68
2022/08/16 01:54:29;;;;;;;13.93;9.57;;;;;;;19.88;85.82;100404.69;6215254;23;20036;-70
2022/08/16 01:56:54;;;;;;;11.90;9.05;;;;;;;19.81;86.70;100396.84;6213196;23;20055;-69
2022/08/16 01:59:20;;;;;;;16.00;9.20;;;;;;;19.85;86.02;100397.03;6215164;23;20005;-70
2022/08/16 02:01:49;;;;;;;11.98;8.68;;;;;;;19.79;86.26;100407.28;6184384;23;20020;-69
2022/08/16 02:04:14;;;;;;;16.50;9.10;;;;;;;19.82;85.87;100404.78;6214181;23;20004;-69
2022/08/16 02:06:41;;;;;;;15.93;9.10;;;;;;;19.77;86.70;100402.09;6214774;23;20019;-69
2022/08/16 02:09:07;;;;;;;15.65;9.68;;;;;;;19.74;87.08;100404.59;6214206;23;20004;-70
2022/08/16 02:11:34;;;;;;;11.98;9.20;;;;;;;19.68;87.33;100409.34;6214648;23;20000;-68
2022/08/16 02:13:59;;;;;;;12.80;9.25;;;;;;;19.65;87.74;100408.00;6214646;23;20327;-70
2022/08/16 02:16:25;;;;;;;13.25;9.55;;;;;;;19.68;87.36;100403.84;6214675;23;20013;-70
2022/08/16 02:18:51;;;;;;;12.75;9.68;;;;;;;19.64;87.76;100398.16;6214583;23;20008;-69
2022/08/16 02:21:17;;;;;;;15.32;10.25;;;;;;;19.58;88.49;100402.09;6214183;23;20312;-69
2022/08/16 02:23:43;;;;;;;14.07;10.73;;;;;;;19.48;89.69;100403.03;6214898;23;20001;-68
2022/08/16 02:26:08;;;;;;;15.32;10.70;;;;;;;19.43;90.25;100405.00;6214004;23;20030;-70
2022/08/16 02:28:35;;;;;;;15.50;10.70;;;;;;;19.42;90.49;100406.94;6213974;23;20008;-70
2022/08/16 02:31:06;;;;;;;13.90;10.73;;;;;;;19.38;91.57;100405.09;6214496;23;20112;-70
2022/08/16 02:33:32;;;;;;;16.92;11.25;;;;;;;19.34;91.87;100404.03;6214359;23;20000;-69
2022/08/16 02:35:57;;;;;;;14.18;11.25;;;;;;;19.32;92.36;100401.59;6214522;23;20031;-70
2022/08/16 02:38:23;;;;;;;14.38;11.15;;;;;;;19.28;92.65;100393.16;6213912;23;20008;-69
2022/08/16 02:40:48;;;;;;;16.20;11.32;;;;;;;19.24;93.46;100400.34;6213950;23;20430;-69
2022/08/16 02:43:13;;;;;;;13.82;10.70;;;;;;;19.19;93.92;100389.44;6213854;23;20009;-68
2022/08/16 02:45:39;;;;;;;16.27;11.45;;;;;;;19.16;94.71;100397.41;6215197;23;20005;-69
2022/08/16 02:48:04;;;;;;;17.13;11.98;;;;;;;19.13;95.60;100396.09;6213509;23;20031;-68
2022/08/16 02:50:30;;;;;;;17.30;11.60;;;;;;;19.07;96.54;100394.53;6213818;23;20005;-70
2022/08/16 02:52:55;;;;;;;16.77;11.68;;;;;;;19.05;97.49;100385.75;6214777;23;20335;-68
2022/08/16 02:55:22;;;;;;;13.63;11.43;;;;;;;19.04;97.91;100390.44;6214233;23;20008;-69
2022/08/16 02:57:47;;;;;;;14.88;11.57;;;;;;;19.01;98.89;100390.19;6214534;23;20028;-69
2022/08/16 03:00:15;;;;;;;15.75;11.55;;;;;;;18.95;99.61;100390.28;6213640;23;20004;-68
2022/08/16 03:02:43;;;;;;;18.85;11.90;;;;;;;18.93;100.00;100386.19;6210990;23;20026;-68
2022/08/16 03:05:12;;;;;;;14.32;11.45;;;;;;;18.85;100.00;100384.91;6214028;23;20008;-69
2022/08/16 03:07:37;;;;;;;14.35;12.23;;;;;;;18.88;100.00;100384.31;6214498;23;20005;-68
2022/08/16 03:10:08;;;;;;;13.77;11.32;;;;;;;18.90;100.00;100386.75;6213989;23;20051;-68
2022/08/16 03:12:33;;;;;;;15.48;11.45;;;;;;;18.90;100.00;100384.03;6214763;23;20011;-69
2022/08/16 03:14:59;;;;;;;14.18;12.10;;;;;;;18.85;100.00;100382.16;6213469;23;20318;-69
2022/08/16 03:17:25;;;;;;;15.57;12.07;;;;;;;18.81;100.00;100383.00;6214924;23;20008;-69
2022/08/16 03:19:52;;;;;;;15.80;12.25;;;;;;;18.83;100.00;100378.88;6214541;23;20070;-69
2022/08/16 03:22:18;;;;;;;16.85;12.10;;;;;;;18.92;100.00;100388.13;6214193;23;20004;-68
2022/08/16 03:24:43;;;;;;;15.77;11.70;;;;;;;18.89;100.00;100376.94;6214599;23;20005;-69
2022/08/16 03:27:09;;;;;;;17.95;11.85;;;;;;;18.86;100.00;100377.50;6213054;23;20304;-68
2022/08/16 03:29:34;;;;;;;15.70;11.98;;;;;;;18.80;100.00;100378.66;6213937;23;20054;-69
2022/08/16 03:32:00;;;;;;;17.88;12.68;;;;;;;18.82;100.00;100381.91;6213799;23;20418;-68
2022/08/16 03:34:26;;;;;;;15.40;11.82;;;;;;;18.79;100.00;100383.28;6213629;23;20008;-69
2022/08/16 03:36:52;;;;;;;16.35;11.63;;;;;;;18.70;100.00;100396.00;6214656;23;20079;-69
2022/08/16 03:39:18;;;;;;;15.63;12.75;;;;;;;18.67;100.00;100391.13;6215870;23;20032;-69
2022/08/16 03:41:43;;;;;;;16.30;12.80;;;;;;;18.68;100.00;100398.25;6215669;23;20008;-68
2022/08/16 03:44:08;;;;;;;15.70;12.43;;;;;;;18.69;100.00;100400.69;6216027;23;20043;-69
2022/08/16 03:46:34;;;;;;;14.43;12.70;;;;;;;18.63;100.00;100407.34;6216478;23;20059;-69
2022/08/16 03:48:59;;;;;;;17.50;11.98;;;;;;;18.68;100.00;100400.97;6214763;23;20055;-68
2022/08/16 03:51:25;;;;;;;16.55;12.73;;;;;;;18.62;100.00;100400.22;6215753;23;20040;-68
2022/08/16 03:53:50;;;;;;;18.05;12.60;;;;;;;18.63;100.00;100399.09;6215586;23;20008;-69
2022/08/16 03:56:16;;;;;;;16.38;13.15;;;;;;;18.60;100.00;100408.72;6215728;23;20002;-69
2022/08/16 03:58:41;;;;;;;14.63;13.05;;;;;;;18.63;100.00;100404.59;6215984;23;20008;-69
2022/08/16 04:01:07;;;;;;;15.88;13.00;;;;;;;18.64;100.00;100410.88;6211845;23;20438;-69
2022/08/16 04:03:32;;;;;;;22.42;13.35;;;;;;;18.68;100.00;100415.50;6215359;23;20001;-69
2022/08/16 04:05:58;;;;;;;17.40;13.18;;;;;;;18.67;100.00;100415.78;6216058;23;20016;-69
2022/08/16 04:08:23;;;;;;;17.65;14.52;;;;;;;18.67;100.00;100421.25;6214780;23;20008;-69
2022/08/16 04:10:53;;;;;;;17.73;14.13;;;;;;;18.64;100.00;100419.09;6215493;23;20008;-69
2022/08/16 04:13:20;;;;;;;19.60;14.02;;;;;;;18.65;100.00;100426.22;6215635;23;20303;-69
2022/08/16 04:15:46;;;;;;;16.98;13.07;;;;;;;18.56;100.00;100417.81;6216150;23;20004;-69
2022/08/16 04:18:12;;;;;;;19.40;14.18;;;;;;;18.57;100.00;100423.00;6215896;23;20008;-69
2022/08/16 04:20:38;;;;;;;17.70;14.00;;;;;;;18.63;100.00;100422.94;6189487;23;20039;-69
2022/08/16 04:23:04;;;;;;;18.38;14.43;;;;;;;18.64;100.00;100425.38;6215922;23;20005;-69
2022/08/16 04:25:29;;;;;;;17.98;13.93;;;;;;;18.65;100.00;100420.75;6216357;23;20379;-69
2022/08/16 04:27:55;;;;;;;17.08;14.30;;;;;;;18.66;100.00;100422.34;6215816;23;20005;-69
2022/08/16 04:30:21;;;;;;;22.35;14.80;;;;;;;18.65;100.00;100426.22;6215377;23;20008;-69
2022/08/16 04:32:47;;;;;;;20.98;14.75;;;;;;;18.64;100.00;100425.38;6215077;23;20000;-69
2022/08/16 04:35:16;;;;;;;16.75;14.82;;;;;;;18.63;100.00;100429.25;6215195;23;20005;-69
2022/08/16 04:37:44;;;;;;;17.70;14.85;;;;;;;18.60;100.00;100419.69;6216346;23;20008;-69
2022/08/16 04:40:10;;;;;;;18.45;14.50;;;;;;;18.68;100.00;100426.44;6188612;23;20005;-69
2022/08/16 04:42:38;;;;;;;18.58;15.07;;;;;;;18.71;100.00;100425.88;6215533;23;20059;-69
2022/08/16 04:45:05;;;;;;;17.52;14.48;;;;;;;18.66;100.00;100427.84;6215596;23;20001;-69
2022/08/16 04:47:31;;;;;;;16.10;13.90;;;;;;;18.72;100.00;100427.50;6214443;23;20012;-69
2022/08/16 04:49:57;;;;;;;20.73;15.40;;;;;;;18.74;100.00;100430.78;6215229;23;20005;-69
2022/08/16 04:52:22;;;;;;;18.88;15.27;;;;;;;18.76;100.00;100433.22;6214841;23;20015;-69
2022/08/16 04:54:48;;;;;;;24.63;14.85;;;;;;;18.72;100.00;100433.00;6215828;23;20449;-69
2022/08/16 04:57:13;;;;;;;17.25;15.02;;;;;;;18.77;100.00;100426.63;6215872;23;20000;-69
2022/08/16 04:59:39;;;;;;;21.88;15.23;;;;;;;18.77;100.00;100429.38;6215908;23;20012;-69
2022/08/16 05:02:04;;;;;;;18.10;15.05;;;;;;;18.85;100.00;100444.38;6210843;23;20024;-69
2022/08/16 05:04:30;;;;;;;19.35;14.73;;;;;;;18.82;100.00;100439.47;6215710;23;20062;-69
2022/08/16 05:06:55;;;;;;;20.63;15.52;;;;;;;18.75;100.00;100439.81;6215493;23;20013;-69
2022/08/16 05:09:21;;;;;;;17.60;15.13;;;;;;;18.85;100.00;100453.44;6215663;23;20004;-69
2022/08/16 05:11:46;;;;;;;21.35;14.45;;;;;;;18.86;100.00;100444.13;6215578;23;20000;-69
2022/08/16 05:14:11;;;;;;;20.80;14.88;;;;;;;18.86;100.00;100446.06;6215685;23;20000;-69
2022/08/16 05:16:37;;;;;;;20.75;15.80;;;;;;;18.91;100.00;100455.00;6215572;23;20074;-69
2022/08/16 05:19:05;;;;;;;18.33;15.18;;;;;;;18.86;100.00;100448.78;6215548;23;20338;-69
2022/08/16 05:21:31;;;;;;;21.48;16.13;;;;;;;18.85;100.00;100449.84;6187085;23;20012;-69
2022/08/16 05:23:57;;;;;;;22.00;15.00;;;;;;;18.82;100.00;100451.25;6215444;23;20024;-70
2022/08/16 05:26:25;;;;;;;20.38;15.48;;;;;;;18.85;100.00;100460.81;6215593;23;20011;-70
2022/08/16 05:28:50;;;;;;;20.35;14.98;;;;;;;18.87;100.00;100467.69;6215274;23;20111;-69
2022/08/16 05:31:16;;;;;;;22.48;15.15;;;;;;;18.88;100.00;100458.34;6215043;23;20059;-69
2022/08/16 05:33:42;;;;;;;19.27;15.18;;;;;;;18.91;100.00;100463.22;6214433;23;20383;-68
2022/08/16 05:36:08;;;;;;;18.80;14.63;;;;;;;18.93;100.00;100472.00;6214321;23;20406;-68
2022/08/16 05:38:34;;;;;;;20.92;15.57;;;;;;;18.91;100.00;100465.97;6214594;23;20055;-69
2022/08/16 05:41:01;;;;;;;19.10;15.10;;;;;;;18.96;100.00;100470.59;6214523;23;20430;-69
2022/08/16 05:43:27;;;;;;;16.35;14.57;;;;;;;18.95;100.00;100472.53;6215159;23;20009;-69
2022/08/16 05:45:54;;;;;;;21.38;16.35;;;;;;;18.95;100.00;100475.25;6188979;23;20016;-69
2022/08/16 05:48:20;;;;;;;20.50;15.35;;;;;;;18.98;100.00;100478.53;6214829;23;20005;-69
2022/08/16 05:50:45;;;;;;;20.85;14.82;;;;;;;18.96;100.00;100470.59;6214345;23;20062;-68
2022/08/16 05:53:11;;;;;;;20.13;15.23;;;;;;;18.95;100.00;100475.25;6214898;23;20326;-68
2022/08/16 05:55:36;;;;;;;18.83;15.18;;;;;;;19.00;100.00;100479.88;6215058;23;20432;-69
2022/08/16 05:58:02;;;;;;;20.70;14.65;;;;;;;19.04;100.00;100472.72;6215101;23;20004;-69
2022/08/16 06:00:28;;;;;;;19.55;14.45;;;;;;;19.11;100.00;100472.34;6211788;23;20004;-70
2022/08/16 06:02:53;;;;;;;17.17;14.82;;;;;;;19.13;100.00;100486.59;6212035;23;20032;-69
2022/08/16 06:05:18;;;;;;;18.75;15.15;;;;;;;19.14;100.00;100482.72;6214557;23;20070;-69
2022/08/16 06:07:44;;;;;;;19.63;14.63;;;;;;;19.17;100.00;100500.53;6214675;23;20047;-69
2022/08/16 06:10:11;;;;;;;19.58;14.27;;;;;;;19.18;99.25;100492.03;6214691;23;20031;-69
2022/08/16 06:12:36;;;;;;;18.33;14.50;;;;;;;19.25;99.44;100491.69;6212959;23;20032;-69
2022/08/16 06:15:12;;;;;;;20.00;14.38;;;;;;;19.29;100.00;100495.47;6211402;23;20039;-66
2022/08/16 06:17:37;;;;;;;17.98;14.15;;;;;;;19.35;97.59;100493.47;6214457;23;20035;-67
2022/08/16 06:20:04;;;;;;;16.95;13.55;;;;;;;19.36;97.40;100493.19;6212811;23;20001;-70
2022/08/16 06:22:30;;;;;;;17.40;14.23;;;;;;;19.39;96.05;100491.78;6213801;23;20019;-69
2022/08/16 06:24:55;;;;;;;17.17;14.80;;;;;;;19.43;96.03;100490.91;6214516;23;20080;-66
2022/08/16 06:27:20;;;;;;;19.35;13.20;;;;;;;19.48;95.18;100492.78;6214978;23;20008;-68
2022/08/16 06:29:46;;;;;;;16.13;13.10;;;;;;;19.57;94.84;100499.25;6214633;23;20004;-68
2022/08/16 06:32:11;;;;;;;18.17;14.25;;;;;;;19.64;93.99;100498.88;6214567;23;20123;-66
2022/08/16 06:34:37;;;;;;;20.05;14.30;;;;;;;19.71;91.51;100506.75;6214363;23;20006;-70
2022/08/16 06:37:03;;;;;;;16.42;13.80;;;;;;;19.76;90.04;100513.00;6214830;23;20322;-70
2022/08/16 06:39:29;;;;;;;20.08;14.05;;;;;;;19.81;89.58;100507.47;6213594;23;20012;-69
2022/08/16 06:41:55;;;;;;;19.27;13.55;;;;;;;19.89;91.42;100508.72;6213958;23;20104;-70
2022/08/16 06:44:21;;;;;;;17.15;13.88;;;;;;;19.97;88.43;100507.25;6214456;23;20086;-67
2022/08/16 06:46:46;;;;;;;19.08;14.45;;;;;;;19.98;86.43;100501.44;6215003;23;20009;-70
2022/08/16 06:49:12;;;;;;;16.42;12.95;;;;;;;20.01;87.55;100505.53;6214443;23;20426;-69
2022/08/16 06:51:39;;;;;;;17.17;14.38;;;;;;;20.05;86.07;100517.56;6214252;23;20000;-71
2022/08/16 06:54:05;;;;;;;16.08;13.75;;;;;;;20.09;85.67;100506.81;6214512;23;20009;-71
2022/08/16 06:56:31;;;;;;;21.30;14.30;;;;;;;20.14;85.48;100510.28;6214816;23;20055;-70
2022/08/16 06:58:57;;;;;;;15.63;13.85;;;;;;;20.18;85.14;100513.25;6213717;23;20414;-68
2022/08/16 07:01:22;;;;;;;19.42;13.95;;;;;;;20.23;84.29;100507.69;6210129;23;20021;-69
2022/08/16 07:03:48;;;;;;;16.38;13.50;;;;;;;20.26;84.01;100507.09;6213925;23;20005;-69
2022/08/16 07:06:15;;;;;;;17.20;13.40;;;;;;;20.33;85.90;100514.94;6214140;23;20028;-69
2022/08/16 07:08:45;;;;;;;21.55;14.73;;;;;;;20.36;83.21;100506.09;6214500;23;20015;-68
2022/08/16 07:11:11;;;;;;;19.92;13.52;;;;;;;20.46;84.15;100513.38;6213336;23;20013;-69
2022/08/16 07:13:36;;;;;;;19.33;14.30;;;;;;;20.51;82.42;100519.59;6214535;23;20016;-70
2022/08/16 07:16:04;;;;;;;18.00;13.40;;;;;;;20.55;81.84;100525.31;6214527;23;20013;-69
2022/08/16 07:18:30;;;;;;;15.68;13.60;;;;;;;20.58;81.96;100527.47;6214266;23;20375;-70
2022/08/16 07:20:57;;;;;;;17.67;13.95;;;;;;;20.59;80.14;100529.09;6214447;23;20035;-70
2022/08/16 07:23:23;;;;;;;20.13;14.27;;;;;;;20.63;80.47;100527.38;6214186;23;20028;-70
2022/08/16 07:25:49;;;;;;;16.70;14.23;;;;;;;20.66;80.35;100526.00;6214090;23;20434;-70
2022/08/16 07:28:16;;;;;;;16.35;13.63;;;;;;;20.70;80.84;100530.59;6187406;23;20078;-70
2022/08/16 07:30:43;;;;;;;21.15;13.13;;;;;;;20.81;81.31;100533.97;6214288;23;20011;-71
2022/08/16 07:33:09;;;;;;;17.85;13.73;;;;;;;20.86;79.39;100535.81;6212703;23;20091;-69
2022/08/16 07:35:35;;;;;;;22.40;13.48;;;;;;;20.93;79.60;100530.75;6210548;23;20008;-69
2022/08/16 07:38:01;;;;;;;17.58;13.57;;;;;;;21.01;79.33;100532.78;6214470;23;20063;-71
2022/08/16 07:40:27;;;;;;;21.20;14.35;;;;;;;21.04;78.85;100542.38;6213697;23;20035;-70
2022/08/16 07:42:53;;;;;;;16.13;13.85;;;;;;;21.10;79.10;100537.59;6212837;23;20000;-71
2022/08/16 07:45:18;;;;;;;16.30;13.50;;;;;;;21.11;78.69;100542.81;6187987;23;20023;-68
2022/08/16 07:47:44;;;;;;;18.73;13.52;;;;;;;21.15;77.97;100545.75;6214134;23;20051;-69
2022/08/16 07:50:13;;;;;;;20.40;14.75;;;;;;;21.18;76.10;100548.72;6214143;23;20406;-70
2022/08/16 07:52:39;;;;;;;19.05;13.38;;;;;;;21.18;76.18;100548.72;6214663;23;20047;-69
2022/08/16 07:55:06;;;;;;;22.70;13.18;;;;;;;21.21;75.33;100550.03;6214320;23;20005;-68
2022/08/16 07:57:31;;;;;;;15.60;13.05;;;;;;;21.28;75.71;100553.22;6214082;23;20335;-68
2022/08/16 07:59:58;;;;;;;14.23;12.57;;;;;;;21.36;74.77;100554.44;6214490;23;20005;-69
2022/08/16 08:02:24;;;;;;;20.42;11.73;;;;;;;21.42;74.90;100556.81;6210380;23;20159;-67
2022/08/16 08:04:49;;;;;;;17.67;11.82;;;;;;;21.49;72.78;100555.56;6214527;23;20430;-68
2022/08/16 08:07:15;;;;;;;17.80;12.07;;;;;;;21.53;72.46;100553.84;6214467;23;20019;-69
2022/08/16 08:09:41;;;;;;;19.17;11.13;;;;;;;21.63;73.25;100558.34;6214400;23;20402;-68
2022/08/16 08:12:14;;;;;;;18.42;10.75;;;;;;;21.70;71.80;100562.31;6187795;23;20012;-67
2022/08/16 08:14:50;;;;;;;14.73;11.25;;;;;;;21.75;69.84;100564.16;6187142;23;20012;-69
2022/08/16 08:17:17;;;;;;;17.88;11.07;;;;;;;21.82;70.15;100558.25;6186644;23;20072;-68
2022/08/16 08:19:44;;;;;;;20.85;10.43;;;;;;;21.86;69.78;100567.50;6187958;23;20548;-70
2022/08/16 08:22:10;;;;;;;14.00;10.05;;;;;;;22.01;68.93;100575.44;6213875;23;19996;-68
2022/08/16 08:24:37;;;;;;;12.60;10.05;;;;;;;22.04;68.15;100574.84;6214868;23;20337;-68
2022/08/16 08:27:04;;;;;;;16.17;9.50;;;;;;;22.11;67.88;100566.94;6216167;23;20075;-69
2022/08/16 08:29:31;;;;;;;13.70;8.60;;;;;;;22.19;67.21;100565.38;6214188;23;20005;-69
2022/08/16 08:31:56;;;;;;;12.05;8.90;;;;;;;22.28;66.81;100569.06;6216017;23;20008;-68
2022/08/16 08:34:22;;;;;;;15.32;8.88;;;;;;;22.35;66.11;100568.66;6215123;23;20000;-68
2022/08/16 08:36:49;;;;;;;14.75;9.52;;;;;;;22.44;65.65;100574.25;6215612;23;20008;-69
2022/08/16 08:39:14;;;;;;;15.02;9.02;;;;;;;22.44;65.29;100575.03;6215656;23;20032;-68
2022/08/16 08:41:41;;;;;;;13.00;8.45;;;;;;;22.48;65.00;100572.50;6215169;23;20062;-67
2022/08/16 08:44:06;;;;;;;14.73;8.57;;;;;;;22.61;66.15;100577.13;6214233;23;20084;-68
2022/08/16 08:46:32;;;;;;;15.82;8.20;;;;;;;22.67;65.14;100577.81;6215525;23;20028;-69
2022/08/16 08:48:57;;;;;;;12.13;8.40;;;;;;;22.73;63.29;100582.06;6215423;23;20005;-70
2022/08/16 08:51:24;;;;;;;18.50;8.13;;;;;;;22.74;61.96;100580.94;6214984;23;20036;-68
2022/08/16 08:53:49;;;;;;;14.15;8.10;;;;;;;22.78;62.15;100573.69;6215804;23;20079;-69
2022/08/16 08:56:15;;;;;;;11.40;7.10;;;;;;;22.80;62.32;100579.69;6216172;23;20045;-69
2022/08/16 08:58:41;;;;;;;11.60;7.78;;;;;;;22.89;60.72;100581.69;6215438;23;20032;-70
2022/08/16 09:01:07;;;;;;;10.95;7.75;;;;;;;22.93;61.25;100582.69;6211708;23;20070;-67
2022/08/16 09:03:34;;;;;;;13.38;7.65;;;;;;;22.99;61.18;100581.44;6215448;23;20054;-71
2022/08/16 09:06:00;;;;;;;14.18;7.47;;;;;;;23.07;60.12;100583.44;6215462;23;20021;-73
2022/08/16 09:08:25;;;;;;;13.50;7.53;;;;;;;23.15;59.95;100590.97;6215366;23;20015;-70
2022/08/16 09:10:54;;;;;;;12.32;7.50;;;;;;;23.21;59.91;100588.09;6215589;23;20315;-70
2022/08/16 09:13:21;;;;;;;13.23;7.75;;;;;;;23.26;60.01;100590.69;6214811;23;20422;-69
2022/08/16 09:15:48;;;;;;;11.60;6.80;;;;;;;23.26;59.42;100588.75;6189387;23;20000;-71
2022/08/16 09:18:16;;;;;;;13.00;6.15;;;;;;;23.31;58.02;100590.53;6215930;23;20060;-70
2022/08/16 09:20:42;;;;;;;14.73;5.90;;;;;;;23.32;57.08;100595.75;6215706;23;20008;-72
2022/08/16 09:23:07;;;;;;;13.73;6.03;;;;;;;23.41;57.33;100603.28;6189240;23;20075;-71
2022/08/16 09:25:33;;;;;;;8.27;5.43;;;;;;;23.49;56.22;100600.56;6187760;23;20011;-71
2022/08/16 09:27:58;;;;;;;12.73;5.90;;;;;;;23.51;55.56;100601.03;6215825;23;20015;-69
2022/08/16 09:30:25;;;;;;;10.00;5.95;;;;;;;23.55;55.73;100598.44;6215175;23;20008;-69
2022/08/16 09:32:53;;;;;;;6.65;5.70;;;;;;;23.63;56.43;100594.13;6215239;23;20419;-72
2022/08/16 09:35:20;;;;;;;8.85;6.70;;;;;;;23.69;56.32;100592.84;6186906;23;20009;-67
2022/08/16 09:37:45;;;;;;;9.48;6.03;;;;;;;23.77;56.90;100597.56;6214126;23;20078;-68
2022/08/16 09:40:11;;;;;;;8.30;6.40;;;;;;;23.86;56.08;100603.94;6215457;23;19997;-67
2022/08/16 09:42:36;;;;;;;10.40;5.63;;;;;;;23.97;54.58;100598.94;6188648;23;20430;-69
2022/08/16 09:45:03;;;;;;;7.95;4.65;;;;;;;24.10;55.24;100597.19;6215266;23;20004;-69
2022/08/16 09:47:28;;;;;;;9.98;4.97;;;;;;;24.21;54.13;100597.69;6215387;23;20027;-70
2022/08/16 09:49:53;;;;;;;10.40;4.60;;;;;;;24.30;54.96;100592.97;6188998;23;20000;-68
2022/08/16 09:52:19;;;;;;;8.57;4.95;;;;;;;24.36;53.67;100590.88;6215593;23;20011;-69
2022/08/16 09:54:44;;;;;;;6.43;4.60;;;;;;;24.54;54.53;100589.72;6215244;23;20000;-68
2022/08/16 09:57:10;;;;;;;8.55;4.50;;;;;;;24.65;52.69;100589.41;6213888;23;20004;-69
2022/08/16 09:59:35;;;;;;;10.90;4.00;;;;;;;24.70;52.04;100592.84;6214928;23;20044;-70
2022/08/16 10:02:00;;;;;;;8.27;4.68;;;;;;;24.72;51.34;100595.28;6211247;23;20013;-67
2022/08/16 10:04:26;;;;;;;11.93;4.57;;;;;;;24.80;51.49;100594.44;6214627;23;20377;-68
2022/08/16 10:06:57;;;;;;;6.60;3.72;;;;;;;24.86;51.21;100600.63;6215449;23;20044;-68
2022/08/16 10:09:23;;;;;;;7.90;3.65;;;;;;;24.94;50.55;100597.84;6215039;23;20027;-69
2022/08/16 10:14:32;;;;;;;9.13;3.97;;;;;;;25.09;48.85;100601.22;6214840;23;20038;-67
2022/08/16 10:17:04;;;;;;;5.72;3.55;;;;;;;25.19;49.65;100608.38;6214819;23;20556;-66
2022/08/16 10:19:31;;;;;;;9.27;3.67;;;;;;;25.24;48.85;100592.41;6188378;23;20330;-67
2022/08/16 10:21:56;;;;;;;7.25;3.60;;;;;;;25.25;46.99;100607.84;6215033;23;20334;-67
2022/08/16 10:24:22;;;;;;;5.78;3.60;;;;;;;25.28;47.39;100603.63;6214964;23;20004;-67
2022/08/16 10:26:48;;;;;;;5.70;3.45;;;;;;;25.29;47.16;100592.25;6214672;23;20012;-69
2022/08/16 10:29:14;;;;;;;9.82;3.90;;;;;;;25.36;47.03;100590.91;6188218;23;20004;-68
2022/08/16 10:31:40;;;;;;;8.10;3.50;;;;;;;25.38;47.70;100600.53;6214518;23;20028;-66
2022/08/16 10:34:05;;;;;;;10.80;4.13;;;;;;;25.40;47.16;100592.69;6215233;23;20063;-66
2022/08/16 10:36:31;;;;;;;4.20;3.30;;;;;;;25.38;46.76;100605.22;6213571;23;20005;-67
2022/08/16 10:38:56;;;;;;;9.95;4.00;;;;;;;25.45;46.53;100600.00;6215131;23;20004;-66
2022/08/16 10:41:22;;;;;;;5.83;3.30;;;;;;;25.56;47.03;100598.50;6213407;23;20011;-67
2022/08/16 10:43:48;;;;;;;9.88;4.03;;;;;;;25.75;46.73;100606.38;6214423;23;20230;-65
2022/08/16 10:46:14;;;;;;;6.57;3.80;;;;;;;25.76;44.70;100609.97;6214317;23;20009;-65
2022/08/16 10:48:42;;;;;;;9.95;3.50;;;;;;;25.83;45.73;100616.63;6213027;23;20050;-67
2022/08/16 10:51:08;;;;;;;6.95;3.58;;;;;;;25.93;45.88;100609.06;6214703;23;20008;-64
2022/08/16 10:53:34;;;;;;;10.90;3.58;;;;;;;25.97;45.32;100605.28;6213835;23;20043;-65
2022/08/16 10:56:08;;;;;;;10.07;3.50;;;;;;;26.07;45.35;100601.31;6214713;23;20009;-67
2022/08/16 10:58:34;;;;;;;10.23;3.58;;;;;;;26.06;44.34;100598.88;6214338;23;20001;-65
2022/08/16 11:01:05;;;;;;;11.98;3.38;;;;;;;26.08;44.31;100613.25;6210297;23;20032;-69
2022/08/16 11:03:30;;;;;;;6.85;3.72;;;;;;;26.12;45.09;100620.56;6213900;23;20012;-67
2022/08/16 11:05:56;;;;;;;7.97;3.80;;;;;;;26.10;44.19;100613.72;6214620;23;20016;-67
2022/08/16 11:08:22;;;;;;;6.38;3.30;;;;;;;26.23;45.43;100614.63;6214944;23;20135;-69
2022/08/16 11:10:48;;;;;;;9.88;4.03;;;;;;;26.37;44.64;100620.69;6214640;23;20012;-69